Time;durP1;ratioP1;P1;durP2;ratioP2;P2;SDS_P1;SDS_P2;PMS_P1;PMS_P2;Temp;Humidity;BMP_temperature;BMP_pressure;BME280_temperature;BME280_humidity;BME280_pressure;Samples;Min_cycle;Max_cycle;Signal;HPM_P1;HPM_P2
2023/03/06 00:02:19;;;;;;;;;;;;;;;;;;5072710;28;1870;-42
2023/03/06 00:04:46;;;;;;;;;;;;;;;;;;5072862;28;2046;-42
2023/03/06 00:07:13;;;;;;;;;;;;;;;;;;5072676;28;1982;-47
2023/03/06 00:09:40;;;;;;;;;;;;;;;;;;5087197;28;1972;-46
2023/03/06 00:12:08;;;;;;;;;;;;;;;;;;5092795;28;1821;-42
2023/03/06 00:14:35;;;;;;;;;;;;;;;;;;5092540;28;2169;-48
2023/03/06 00:17:02;;;;;;;;;;;;;;;;;;5092908;28;1889;-42
2023/03/06 00:19:30;;;;;;;;;;;;;;;;;;5092567;28;1941;-43
2023/03/06 00:21:57;;;;;;;;;;;;;;;;;;5092492;28;2306;-47
2023/03/06 00:24:24;;;;;;;;;;;;;;;;;;5092624;28;1656;-45
2023/03/06 00:26:51;;;;;;;;;;;;;;;;;;5092362;28;1964;-45
2023/03/06 00:29:18;;;;;;;;;;;;;;;;;;5092477;28;1907;-43
2023/03/06 00:31:46;;;;;;;;;;;;;;;;;;5092421;28;1755;-42
2023/03/06 00:34:13;;;;;;;;;;;;;;;;;;5074222;28;1921;-44
2023/03/06 00:36:41;;;;;;;;;;;;;;;;;;5092072;28;2145;-41
2023/03/06 00:39:08;;;;;;;;;;;;;;;;;;5073737;28;2181;-42
2023/03/06 00:41:35;;;;;;;;;;;;;;;;;;5092211;28;1380;-43
2023/03/06 00:44:02;;;;;;;;;;;;;;;;;;5092077;28;2282;-43
2023/03/06 00:46:30;;;;;;;;;;;;;;;;;;5073907;28;1831;-46
2023/03/06 00:48:57;;;;;;;;;;;;;;;;;;5092121;28;1399;-48
2023/03/06 00:51:24;;;;;;;;;;;;;;;;;;5091795;28;2277;-43
2023/03/06 00:53:52;;;;;;;;;;;;;;;;;;5091851;28;1850;-44
2023/03/06 00:56:19;;;;;;;;;;;;;;;;;;5092084;28;2120;-40
2023/03/06 00:58:46;;;;;;;;;;;;;;;;;;5092062;28;1696;-47
2023/03/06 01:01:14;;;;;;;;;;;;;;;;;;5091901;28;1631;-42
2023/03/06 01:03:42;;;;;;;;;;;;;;;;;;5091708;28;1835;-42
2023/03/06 01:06:09;;;;;;;;;;;;;;;;;;5073177;28;1751;-42
2023/03/06 01:08:36;;;;;;;;;;;;;;;;;;5085311;28;2022;-43
2023/03/06 01:11:03;;;;;;;;;;;;;;;;;;5071300;28;2228;-41
2023/03/06 01:13:30;;;;;;;;;;;;;;;;;;5071433;28;1469;-41
2023/03/06 01:16:05;;;;;;;;;;;;;;;;;;5071267;28;1862;-43
2023/03/06 01:18:32;;;;;;;;;;;;;;;;;;5071449;28;2287;-44
2023/03/06 01:21:00;;;;;;;;;;;;;;;;;;5071408;28;2554;-45
2023/03/06 01:23:27;;;;;;;;;;;;;;;;;;5071339;28;1972;-42
2023/03/06 01:25:55;;;;;;;;;;;;;;;;;;5071270;28;1649;-42
2023/03/06 01:28:22;;;;;;;;;;;;;;;;;;5071231;28;2385;-42
2023/03/06 01:30:50;;;;;;;;;;;;;;;;;;5071456;28;2297;-43
2023/03/06 01:33:17;;;;;;;;;;;;;;;;;;5071130;28;2000;-43
2023/03/06 01:35:44;;;;;;;;;;;;;;;;;;5070632;28;1725;-45
2023/03/06 01:38:12;;;;;;;;;;;;;;;;;;5036875;28;1953;-42
2023/03/06 01:40:39;;;;;;;;;;;;;;;;;;5071189;28;1698;-41
2023/03/06 01:43:25;;;;;;;;;;;;;;;;;;5071199;28;1836;-44
2023/03/06 01:46:11;;;;;;;;;;;;;;;;;;5070939;28;1940;-45
2023/03/06 01:48:39;;;;;;;;;;;;;;;;;;5071026;28;1694;-41
2023/03/06 01:51:06;;;;;;;;;;;;;;;;;;5071012;28;2163;-43
2023/03/06 01:53:33;;;;;;;;;;;;;;;;;;5071197;28;1413;-44
2023/03/06 01:56:01;;;;;;;;;;;;;;;;;;5070828;28;2155;-42
2023/03/06 01:58:28;;;;;;;;;;;;;;;;;;5069766;28;1525;-42
2023/03/06 02:00:56;;;;;;;;;;;;;;;;;;5052909;28;2350;-44
2023/03/06 02:03:25;;;;;;;;;;;;;;;;;;5071172;28;1679;-43
2023/03/06 02:05:52;;;;;;;;;;;;;;;;;;5071257;28;1984;-44
2023/03/06 02:08:22;;;;;;;;;;;;;;;;;;5070973;28;1447;-44
2023/03/06 02:10:56;;;;;;;;;;;;;;;;;;5071017;28;2102;-42
2023/03/06 02:13:23;;;;;;;;;;;;;;;;;;5079435;28;2128;-45
2023/03/06 02:15:50;;;;;;;;;;;;;;;;;;5091470;28;2349;-42
2023/03/06 02:18:18;;;;;;;;;;;;;;;;;;5092462;28;1796;-40
2023/03/06 02:20:49;;;;;;;;;;;;;;;;;;5077095;28;1899;-48
2023/03/06 02:23:27;;;;;;;;;;;;;;;;;;5094847;28;1634;-46
2023/03/06 02:25:54;;;;;;;;;;;;;;;;;;5077257;28;1890;-43
2023/03/06 02:28:23;;;;;;;;;;;;;;;;;;5076637;28;1620;-41
2023/03/06 02:30:51;;;;;;;;;;;;;;;;;;5095031;28;2072;-45
2023/03/06 02:33:20;;;;;;;;;;;;;;;;;;5073203;28;1805;-43
2023/03/06 02:35:56;;;;;;;;;;;;;;;;;;5074128;28;1961;-45
2023/03/06 02:38:26;;;;;;;;;;;;;;;;;;5074548;28;1607;-42
2023/03/06 02:40:56;;;;;;;;;;;;;;;;;;5074577;28;1694;-47
2023/03/06 02:43:28;;;;;;;;;;;;;;;;;;5074144;28;1457;-42
2023/03/06 02:45:55;;;;;;;;;;;;;;;;;;5074444;28;2471;-42
2023/03/06 02:48:22;;;;;;;;;;;;;;;;;;5074286;28;2129;-49
2023/03/06 02:50:50;;;;;;;;;;;;;;;;;;5073819;28;1910;-45
2023/03/06 02:53:18;;;;;;;;;;;;;;;;;;5074134;28;2243;-44
2023/03/06 02:55:46;;;;;;;;;;;;;;;;;;5074046;28;1317;-43
2023/03/06 02:58:14;;;;;;;;;;;;;;;;;;5073902;28;2080;-45
2023/03/06 03:00:42;;;;;;;;;;;;;;;;;;5073925;28;2081;-44
2023/03/06 03:03:09;;;;;;;;;;;;;;;;;;5056760;28;2202;-41
2023/03/06 03:05:36;;;;;;;;;;;;;;;;;;5088888;28;1715;-44
2023/03/06 03:08:11;;;;;;;;;;;;;;;;;;5058016;28;1871;-45
2023/03/06 03:10:38;;;;;;;;;;;;;;;;;;5094139;28;1912;-44
2023/03/06 03:13:05;;;;;;;;;;;;;;;;;;5092401;28;1631;-42
2023/03/06 03:15:33;;;;;;;;;;;;;;;;;;5060727;28;1999;-44
2023/03/06 03:18:01;;;;;;;;;;;;;;;;;;5073801;28;2093;-45
2023/03/06 03:20:29;;;;;;;;;;;;;;;;;;5055845;28;2039;-46
2023/03/06 03:22:56;;;;;;;;;;;;;;;;;;5073833;28;1855;-44
2023/03/06 03:25:25;;;;;;;;;;;;;;;;;;5055819;28;1862;-41
2023/03/06 03:27:54;;;;;;;;;;;;;;;;;;5055668;28;1790;-41
2023/03/06 03:30:22;;;;;;;;;;;;;;;;;;5054760;28;1905;-43
2023/03/06 03:32:49;;;;;;;;;;;;;;;;;;5055270;28;2056;-41
2023/03/06 03:35:17;;;;;;;;;;;;;;;;;;5073377;28;2200;-43
2023/03/06 03:37:45;;;;;;;;;;;;;;;;;;5056259;28;2013;-44
2023/03/06 03:40:13;;;;;;;;;;;;;;;;;;5055371;28;2399;-41
2023/03/06 03:42:40;;;;;;;;;;;;;;;;;;5072956;28;1559;-42
2023/03/06 03:45:08;;;;;;;;;;;;;;;;;;5055338;28;2095;-42
2023/03/06 03:47:36;;;;;;;;;;;;;;;;;;5055232;28;2090;-45
2023/03/06 03:50:04;;;;;;;;;;;;;;;;;;5071818;28;2119;-43
2023/03/06 03:52:31;;;;;;;;;;;;;;;;;;5055371;28;2025;-43
2023/03/06 03:54:58;;;;;;;;;;;;;;;;;;5054931;28;1749;-45
2023/03/06 03:57:27;;;;;;;;;;;;;;;;;;5055099;28;1583;-43
2023/03/06 03:59:55;;;;;;;;;;;;;;;;;;5071623;28;1992;-42
2023/03/06 04:02:39;;;;;;;;;;;;;;;;;;5072797;28;1966;-48
2023/03/06 04:05:23;;;;;;;;;;;;;;;;;;5054759;28;1931;-46
2023/03/06 04:07:50;;;;;;;;;;;;;;;;;;5054618;28;2088;-41
2023/03/06 04:10:18;;;;;;;;;;;;;;;;;;5071251;28;2365;-44
2023/03/06 04:12:46;;;;;;;;;;;;;;;;;;5072731;28;2376;-44
2023/03/06 04:15:13;;;;;;;;;;;;;;;;;;5054884;28;1358;-44
2023/03/06 04:17:40;;;;;;;;;;;;;;;;;;5072507;28;1845;-43
2023/03/06 04:20:13;;;;;;;;;;;;;;;;;;5055533;28;1775;-41
2023/03/06 04:22:40;;;;;;;;;;;;;;;;;;5054208;28;2110;-43
2023/03/06 04:25:09;;;;;;;;;;;;;;;;;;5054320;28;2191;-43
2023/03/06 04:27:36;;;;;;;;;;;;;;;;;;5065311;28;2046;-43
2023/03/06 04:30:05;;;;;;;;;;;;;;;;;;5054195;28;1808;-43
2023/03/06 04:32:33;;;;;;;;;;;;;;;;;;5054343;28;2066;-41
2023/03/06 04:35:01;;;;;;;;;;;;;;;;;;5054189;28;2036;-42
2023/03/06 04:37:35;;;;;;;;;;;;;;;;;;5054437;28;2041;-44
2023/03/06 04:40:03;;;;;;;;;;;;;;;;;;5054337;28;1747;-44
2023/03/06 04:42:30;;;;;;;;;;;;;;;;;;5071020;28;2207;-41
2023/03/06 04:44:57;;;;;;;;;;;;;;;;;;5072976;28;1754;-40
2023/03/06 04:47:24;;;;;;;;;;;;;;;;;;5071537;28;1940;-44
2023/03/06 04:49:52;;;;;;;;;;;;;;;;;;5071837;28;2070;-44
2023/03/06 04:52:19;;;;;;;;;;;;;;;;;;5071830;28;1984;-41
2023/03/06 04:54:46;;;;;;;;;;;;;;;;;;5072029;28;1853;-41
2023/03/06 04:57:13;;;;;;;;;;;;;;;;;;5070348;28;1580;-42
2023/03/06 04:59:41;;;;;;;;;;;;;;;;;;5071718;28;1711;-47
2023/03/06 05:02:08;;;;;;;;;;;;;;;;;;5071695;28;2144;-40
2023/03/06 05:04:35;;;;;;;;;;;;;;;;;;5071653;28;1654;-41
2023/03/06 05:07:02;;;;;;;;;;;;;;;;;;5071818;28;2133;-44
2023/03/06 05:09:29;;;;;;;;;;;;;;;;;;5071713;28;1812;-44
2023/03/06 05:11:57;;;;;;;;;;;;;;;;;;5071393;28;1906;-41
2023/03/06 05:14:24;;;;;;;;;;;;;;;;;;5071328;28;2113;-42
2023/03/06 05:16:51;;;;;;;;;;;;;;;;;;5071445;28;1257;-44
2023/03/06 05:19:18;;;;;;;;;;;;;;;;;;5071224;28;1977;-41
2023/03/06 05:21:45;;;;;;;;;;;;;;;;;;5071322;28;1712;-41
2023/03/06 05:24:12;;;;;;;;;;;;;;;;;;5071231;28;2469;-41
2023/03/06 05:26:39;;;;;;;;;;;;;;;;;;5071544;28;1638;-41
2023/03/06 05:29:07;;;;;;;;;;;;;;;;;;5071291;28;1683;-42
2023/03/06 05:31:34;;;;;;;;;;;;;;;;;;5071345;28;2280;-42
2023/03/06 05:34:01;;;;;;;;;;;;;;;;;;5071635;28;1402;-44
2023/03/06 05:36:28;;;;;;;;;;;;;;;;;;5070961;28;1998;-44
2023/03/06 05:38:55;;;;;;;;;;;;;;;;;;5071429;28;1903;-43
2023/03/06 05:41:22;;;;;;;;;;;;;;;;;;5071187;28;1466;-41
2023/03/06 05:43:51;;;;;;;;;;;;;;;;;;5070956;28;2023;-43
2023/03/06 05:46:18;;;;;;;;;;;;;;;;;;5071229;28;1990;-41
2023/03/06 05:48:45;;;;;;;;;;;;;;;;;;5071151;28;2264;-41
2023/03/06 05:51:12;;;;;;;;;;;;;;;;;;5070747;28;1918;-41
2023/03/06 05:53:40;;;;;;;;;;;;;;;;;;5073326;28;2141;-45
2023/03/06 05:56:09;;;;;;;;;;;;;;;;;;5075147;28;2246;-44
2023/03/06 05:58:37;;;;;;;;;;;;;;;;;;5075434;28;1398;-44
2023/03/06 06:01:08;;;;;;;;;;;;;;;;;;5075133;28;1829;-40
2023/03/06 06:03:35;;;;;;;;;;;;;;;;;;5075307;28;2016;-41
2023/03/06 06:06:06;;;;;;;;;;;;;;;;;;5074873;28;1968;-41
2023/03/06 06:08:33;;;;;;;;;;;;;;;;;;5074715;28;1614;-43
2023/03/06 06:11:00;;;;;;;;;;;;;;;;;;5074726;28;1981;-41
2023/03/06 06:13:27;;;;;;;;;;;;;;;;;;5074766;28;2025;-41
2023/03/06 06:15:54;;;;;;;;;;;;;;;;;;5074953;28;2060;-44
2023/03/06 06:18:21;;;;;;;;;;;;;;;;;;5074759;28;1857;-41
2023/03/06 06:20:48;;;;;;;;;;;;;;;;;;5074870;28;2034;-42
2023/03/06 06:23:16;;;;;;;;;;;;;;;;;;5073559;28;1989;-43
2023/03/06 06:25:43;;;;;;;;;;;;;;;;;;5074705;28;1851;-41
2023/03/06 06:28:11;;;;;;;;;;;;;;;;;;5074711;28;1661;-47
2023/03/06 06:30:39;;;;;;;;;;;;;;;;;;5074687;28;1784;-44
2023/03/06 06:33:07;;;;;;;;;;;;;;;;;;5074427;28;2037;-43
2023/03/06 06:35:34;;;;;;;;;;;;;;;;;;5074312;28;1992;-41
2023/03/06 06:38:01;;;;;;;;;;;;;;;;;;5074281;28;1620;-43
2023/03/06 06:40:29;;;;;;;;;;;;;;;;;;5074482;28;1831;-41
2023/03/06 06:42:56;;;;;;;;;;;;;;;;;;5074227;28;2287;-42
2023/03/06 06:45:23;;;;;;;;;;;;;;;;;;5074218;28;1939;-44
2023/03/06 06:47:50;;;;;;;;;;;;;;;;;;5074178;28;1834;-42
2023/03/06 06:50:17;;;;;;;;;;;;;;;;;;5073789;28;1731;-41
2023/03/06 06:52:44;;;;;;;;;;;;;;;;;;5073811;28;1907;-45
2023/03/06 06:55:13;;;;;;;;;;;;;;;;;;5074150;28;2115;-45
2023/03/06 06:57:41;;;;;;;;;;;;;;;;;;5074230;28;2083;-42
2023/03/06 07:00:10;;;;;;;;;;;;;;;;;;5073988;28;2232;-44
2023/03/06 07:02:37;;;;;;;;;;;;;;;;;;5073859;28;1768;-45
2023/03/06 07:05:06;;;;;;;;;;;;;;;;;;5072735;28;2104;-42
2023/03/06 07:07:35;;;;;;;;;;;;;;;;;;5073698;28;1522;-45
2023/03/06 07:10:07;;;;;;;;;;;;;;;;;;5091720;28;1940;-43
2023/03/06 07:12:35;;;;;;;;;;;;;;;;;;5093638;28;1984;-42
2023/03/06 07:15:03;;;;;;;;;;;;;;;;;;5094056;28;1571;-42
2023/03/06 07:17:30;;;;;;;;;;;;;;;;;;5093782;28;1926;-44
2023/03/06 07:19:58;;;;;;;;;;;;;;;;;;5094022;28;1638;-41
2023/03/06 07:22:25;;;;;;;;;;;;;;;;;;5093808;28;1784;-43
2023/03/06 07:24:53;;;;;;;;;;;;;;;;;;5093871;28;2293;-46
2023/03/06 07:27:22;;;;;;;;;;;;;;;;;;5093726;28;2082;-41
2023/03/06 07:29:49;;;;;;;;;;;;;;;;;;5092958;28;1926;-41
2023/03/06 07:32:16;;;;;;;;;;;;;;;;;;5073304;28;1910;-41
2023/03/06 07:34:45;;;;;;;;;;;;;;;;;;5080633;28;1691;-41
2023/03/06 07:37:12;;;;;;;;;;;;;;;;;;5093550;28;2372;-40
2023/03/06 07:39:39;;;;;;;;;;;;;;;;;;5093453;28;1809;-47
2023/03/06 07:42:06;;;;;;;;;;;;;;;;;;5093450;28;1856;-40
2023/03/06 07:44:40;;;;;;;;;;;;;;;;;;5093187;28;1901;-40
2023/03/06 07:47:10;;;;;;;;;;;;;;;;;;5093258;28;2286;-40
2023/03/06 07:49:37;;;;;;;;;;;;;;;;;;5093336;28;1925;-40
2023/03/06 07:52:05;;;;;;;;;;;;;;;;;;5093120;28;2079;-38
2023/03/06 07:54:34;;;;;;;;;;;;;;;;;;5093007;28;1936;-41
2023/03/06 07:57:01;;;;;;;;;;;;;;;;;;5093008;28;2092;-41
2023/03/06 07:59:28;;;;;;;;;;;;;;;;;;5093461;28;1946;-41
2023/03/06 08:01:56;;;;;;;;;;;;;;;;;;5093064;28;1810;-42
2023/03/06 08:04:23;;;;;;;;;;;;;;;;;;5092934;28;2245;-40
2023/03/06 08:06:52;;;;;;;;;;;;;;;;;;5092938;28;2005;-45
2023/03/06 08:09:19;;;;;;;;;;;;;;;;;;5081005;28;1794;-43
2023/03/06 08:11:46;;;;;;;;;;;;;;;;;;5072580;28;2037;-42
2023/03/06 08:14:13;;;;;;;;;;;;;;;;;;5072683;28;1716;-41
2023/03/06 08:16:40;;;;;;;;;;;;;;;;;;5072342;28;2307;-40
2023/03/06 08:19:07;;;;;;;;;;;;;;;;;;5054237;28;1874;-46
2023/03/06 08:21:34;;;;;;;;;;;;;;;;;;5072424;28;1723;-46
2023/03/06 08:24:02;;;;;;;;;;;;;;;;;;5072094;28;2105;-44
2023/03/06 08:26:30;;;;;;;;;;;;;;;;;;5072214;28;2038;-43
2023/03/06 08:28:58;;;;;;;;;;;;;;;;;;5072165;28;1581;-43
2023/03/06 08:31:27;;;;;;;;;;;;;;;;;;5072202;28;1906;-42
2023/03/06 08:33:55;;;;;;;;;;;;;;;;;;5072076;28;2271;-43
2023/03/06 08:36:22;;;;;;;;;;;;;;;;;;5071795;28;1714;-43
2023/03/06 08:38:50;;;;;;;;;;;;;;;;;;5072104;28;1870;-40
2023/03/06 08:41:17;;;;;;;;;;;;;;;;;;5072164;28;1842;-46
2023/03/06 08:43:46;;;;;;;;;;;;;;;;;;5054151;28;2588;-41
2023/03/06 08:46:13;;;;;;;;;;;;;;;;;;5072028;28;1949;-42
2023/03/06 08:48:40;;;;;;;;;;;;;;;;;;5078421;28;2096;-42
2023/03/06 08:51:09;;;;;;;;;;;;;;;;;;5091962;28;1968;-44
2023/03/06 08:53:36;;;;;;;;;;;;;;;;;;5092046;28;2194;-41
2023/03/06 08:56:17;;;;;;;;;;;;;;;;;;5092289;28;1945;-40
2023/03/06 08:58:44;;;;;;;;;;;;;;;;;;5091998;28;1797;-41
2023/03/06 09:01:18;;;;;;;;;;;;;;;;;;5091929;28;2215;-42
2023/03/06 09:03:46;;;;;;;;;;;;;;;;;;5074061;28;1893;-42
2023/03/06 09:06:13;;;;;;;;;;;;;;;;;;5091847;28;1851;-41
2023/03/06 09:08:42;;;;;;;;;;;;;;;;;;5085167;28;1918;-43
2023/03/06 09:11:10;;;;;;;;;;;;;;;;;;5071288;28;1460;-42
2023/03/06 09:13:37;;;;;;;;;;;;;;;;;;5071195;28;1917;-46
2023/03/06 09:16:04;;;;;;;;;;;;;;;;;;5071130;28;2168;-44
2023/03/06 09:18:32;;;;;;;;;;;;;;;;;;5071344;28;2108;-45
2023/03/06 09:20:59;;;;;;;;;;;;;;;;;;5071483;28;1683;-43
2023/03/06 09:23:26;;;;;;;;;;;;;;;;;;5071190;28;1833;-45
2023/03/06 09:25:54;;;;;;;;;;;;;;;;;;5071355;28;1882;-45
2023/03/06 09:28:21;;;;;;;;;;;;;;;;;;5070653;28;1778;-42
2023/03/06 09:30:48;;;;;;;;;;;;;;;;;;5071146;28;1857;-43
2023/03/06 09:33:16;;;;;;;;;;;;;;;;;;5071028;28;2257;-44
2023/03/06 09:35:51;;;;;;;;;;;;;;;;;;5070832;28;1952;-42
2023/03/06 09:38:19;;;;;;;;;;;;;;;;;;5071386;28;2085;-45
2023/03/06 09:40:52;;;;;;;;;;;;;;;;;;5071197;28;1911;-45
2023/03/06 09:43:24;;;;;;;;;;;;;;;;;;5071324;28;1506;-45
2023/03/06 09:45:51;;;;;;;;;;;;;;;;;;5071119;28;1995;-46
2023/03/06 09:48:20;;;;;;;;;;;;;;;;;;5071103;28;2111;-49
2023/03/06 09:50:56;;;;;;;;;;;;;;;;;;5070869;28;1986;-46
2023/03/06 09:53:47;;;;;;;;;;;;;;;;;;5070791;28;1911;-48
2023/03/06 09:56:16;;;;;;;;;;;;;;;;;;5071177;28;1883;-41
2023/03/06 09:58:52;;;;;;;;;;;;;;;;;;5070331;28;1972;-50
2023/03/06 10:01:22;;;;;;;;;;;;;;;;;;5071253;28;2166;-45
2023/03/06 10:04:08;;;;;;;;;;;;;;;;;;5070679;28;1967;-45
2023/03/06 10:06:40;;;;;;;;;;;;;;;;;;5071005;28;2003;-46
2023/03/06 10:09:26;;;;;;;;;;;;;;;;;;5070632;28;2151;-42
2023/03/06 10:11:58;;;;;;;;;;;;;;;;;;5070741;28;1905;-45
2023/03/06 10:14:44;;;;;;;;;;;;;;;;;;5069886;28;2234;-45
2023/03/06 10:17:16;;;;;;;;;;;;;;;;;;5070776;28;1435;-43
2023/03/06 10:19:46;;;;;;;;;;;;;;;;;;5052585;28;2195;-44
2023/03/06 10:22:38;;;;;;;;;;;;;;;;;;5070685;28;2147;-44
2023/03/06 10:25:11;;;;;;;;;;;;;;;;;;5070410;28;2079;-45
2023/03/06 10:27:45;;;;;;;;;;;;;;;;;;5089178;28;1838;-46
2023/03/06 10:30:13;;;;;;;;;;;;;;;;;;5090796;28;2173;-42
2023/03/06 10:32:50;;;;;;;;;;;;;;;;;;5090693;28;1967;-40
2023/03/06 10:35:18;;;;;;;;;;;;;;;;;;5090416;28;2106;-45
2023/03/06 10:37:45;;;;;;;;;;;;;;;;;;5090755;28;2338;-42
2023/03/06 10:40:19;;;;;;;;;;;;;;;;;;5092842;28;1689;-42
2023/03/06 10:42:47;;;;;;;;;;;;;;;;;;5094443;28;1823;-47
2023/03/06 10:45:19;;;;;;;;;;;;;;;;;;5094034;28;1684;-42
2023/03/06 10:47:47;;;;;;;;;;;;;;;;;;5094268;28;1825;-45
2023/03/06 10:50:22;;;;;;;;;;;;;;;;;;5094150;28;2032;-41
2023/03/06 10:53:00;;;;;;;;;;;;;;;;;;5094392;28;1972;-46
2023/03/06 10:55:29;;;;;;;;;;;;;;;;;;5094414;28;1801;-49
2023/03/06 10:57:56;;;;;;;;;;;;;;;;;;5094586;28;1674;-44
2023/03/06 11:00:25;;;;;;;;;;;;;;;;;;5075892;28;1970;-47
2023/03/06 11:03:11;;;;;;;;;;;;;;;;;;5094223;28;1834;-42
2023/03/06 11:05:38;;;;;;;;;;;;;;;;;;5075886;28;1744;-45
2023/03/06 11:08:18;;;;;;;;;;;;;;;;;;5092271;28;1770;-46
2023/03/06 11:10:53;;;;;;;;;;;;;;;;;;5039432;28;2192;-44
2023/03/06 11:13:23;;;;;;;;;;;;;;;;;;5073653;28;1916;-47
2023/03/06 11:16:10;;;;;;;;;;;;;;;;;;5073673;28;1966;-42
2023/03/06 11:18:39;;;;;;;;;;;;;;;;;;5063498;28;1755;-44
2023/03/06 11:21:41;;;;;;;;;;;;;;;;;;5073560;28;1879;-41
2023/03/06 11:24:17;;;;;;;;;;;;;;;;;;5011397;28;2015;-43
2023/03/06 11:26:50;;;;;;;;;;;;;;;;;;5065072;28;1739;-43
2023/03/06 11:29:20;;;;;;;;;;;;;;;;;;5073276;28;2135;-42
2023/03/06 11:31:53;;;;;;;;;;;;;;;;;;5073167;28;2122;-42
2023/03/06 11:34:39;;;;;;;;;;;;;;;;;;5073106;28;2254;-42
2023/03/06 11:37:12;;;;;;;;;;;;;;;;;;5073232;28;1863;-44
2023/03/06 11:39:59;;;;;;;;;;;;;;;;;;5073088;28;1904;-44
2023/03/06 11:42:29;;;;;;;;;;;;;;;;;;5063060;28;1684;-42
2023/03/06 11:44:56;;;;;;;;;;;;;;;;;;5073447;28;1801;-42
2023/03/06 11:47:38;;;;;;;;;;;;;;;;;;5073190;28;2085;-44
2023/03/06 11:50:20;;;;;;;;;;;;;;;;;;5072825;28;1651;-44
2023/03/06 11:52:52;;;;;;;;;;;;;;;;;;5072865;28;2386;-42
2023/03/06 11:55:42;;;;;;;;;;;;;;;;;;5072951;28;1500;-44
2023/03/06 11:58:12;;;;;;;;;;;;;;;;;;5044740;28;1251;-42
2023/03/06 12:00:45;;;;;;;;;;;;;;;;;;5072571;28;2092;-42
2023/03/06 12:03:31;;;;;;;;;;;;;;;;;;5072477;28;1813;-42
2023/03/06 12:06:07;;;;;;;;;;;;;;;;;;5072651;28;2069;-43
2023/03/06 12:09:04;;;;;;;;;;;;;;;;;;5078106;28;1589;-41
2023/03/06 12:11:31;;;;;;;;;;;;;;;;;;5079823;28;1902;-42
2023/03/06 12:14:17;;;;;;;;;;;;;;;;;;5092679;28;1984;-43
2023/03/06 12:17:01;;;;;;;;;;;;;;;;;;5092818;28;1973;-41
2023/03/06 12:19:33;;;;;;;;;;;;;;;;;;5092699;28;2137;-42
2023/03/06 12:22:00;;;;;;;;;;;;;;;;;;5080096;28;1785;-45
2023/03/06 12:24:30;;;;;;;;;;;;;;;;;;5087758;28;1987;-44
2023/03/06 12:27:17;;;;;;;;;;;;;;;;;;5092509;28;1825;-42
2023/03/06 12:30:12;;;;;;;;;;;;;;;;;;5092149;28;1862;-47
2023/03/06 12:32:42;;;;;;;;;;;;;;;;;;5092166;28;1912;-43
2023/03/06 12:35:09;;;;;;;;;;;;;;;;;;5092089;28;2113;-42
2023/03/06 12:37:49;;;;;;;;;;;;;;;;;;5092281;28;1551;-42
2023/03/06 12:40:24;;;;;;;;;;;;;;;;;;5092054;28;1706;-45
2023/03/06 12:43:11;;;;;;;;;;;;;;;;;;5092220;28;1797;-43
2023/03/06 12:45:39;;;;;;;;;;;;;;;;;;5074461;28;1851;-42
2023/03/06 12:48:24;;;;;;;;;;;;;;;;;;5071173;28;2015;-44
2023/03/06 12:50:52;;;;;;;;;;;;;;;;;;5071219;28;1784;-43
2023/03/06 12:53:27;;;;;;;;;;;;;;;;;;5071494;28;1933;-44
2023/03/06 12:55:56;;;;;;;;;;;;;;;;;;5071611;28;1733;-42
2023/03/06 12:58:30;;;;;;;;;;;;;;;;;;5071373;28;2044;-47
2023/03/06 13:01:19;;;;;;;;;;;;;;;;;;5071539;28;1760;-42
2023/03/06 13:03:52;;;;;;;;;;;;;;;;;;5068985;28;1663;-39
2023/03/06 13:06:38;;;;;;;;;;;;;;;;;;5079997;28;1494;-39
2023/03/06 13:09:32;;;;;;;;;;;;;;;;;;5082581;28;1264;-39
2023/03/06 13:12:03;;;;;;;;;;;;;;;;;;5091594;28;1869;-43
2023/03/06 13:14:36;;;;;;;;;;;;;;;;;;5091125;28;1974;-45
2023/03/06 13:17:24;;;;;;;;;;;;;;;;;;5083763;28;1785;-43
2023/03/06 13:20:10;;;;;;;;;;;;;;;;;;5085351;28;2007;-43
2023/03/06 13:22:38;;;;;;;;;;;;;;;;;;5091715;28;2070;-41
2023/03/06 13:25:17;;;;;;;;;;;;;;;;;;5091754;28;2171;-46
2023/03/06 13:27:51;;;;;;;;;;;;;;;;;;5087061;28;1689;-42
2023/03/06 13:30:39;;;;;;;;;;;;;;;;;;5060961;28;2256;-43
2023/03/06 13:33:25;;;;;;;;;;;;;;;;;;5073867;28;1982;-44
2023/03/06 13:35:54;;;;;;;;;;;;;;;;;;5070886;28;2308;-43
2023/03/06 13:38:53;;;;;;;;;;;;;;;;;;5070651;28;1863;-48
2023/03/06 13:41:25;;;;;;;;;;;;;;;;;;5076130;28;1987;-49
2023/03/06 13:43:53;;;;;;;;;;;;;;;;;;5091159;28;1817;-48
2023/03/06 13:46:24;;;;;;;;;;;;;;;;;;5091265;28;2058;-46
2023/03/06 13:49:10;;;;;;;;;;;;;;;;;;5090272;28;1740;-45
2023/03/06 13:51:37;;;;;;;;;;;;;;;;;;5091318;28;1934;-46
2023/03/06 13:54:19;;;;;;;;;;;;;;;;;;5091334;28;1905;-43
2023/03/06 13:56:56;;;;;;;;;;;;;;;;;;5090915;28;1854;-45
2023/03/06 13:59:38;;;;;;;;;;;;;;;;;;5091108;28;1891;-47
2023/03/06 14:02:14;;;;;;;;;;;;;;;;;;5091285;28;1980;-46
2023/03/06 14:04:42;;;;;;;;;;;;;;;;;;5091036;28;1931;-44
2023/03/06 14:07:27;;;;;;;;;;;;;;;;;;5090869;28;1433;-45
2023/03/06 14:10:07;;;;;;;;;;;;;;;;;;5073818;28;1772;-44
2023/03/06 14:12:49;;;;;;;;;;;;;;;;;;5071150;28;2009;-44
2023/03/06 14:15:24;;;;;;;;;;;;;;;;;;5073895;28;2117;-42
2023/03/06 14:18:00;;;;;;;;;;;;;;;;;;5074808;28;1900;-43
2023/03/06 14:20:41;;;;;;;;;;;;;;;;;;5074249;28;2102;-50
2023/03/06 14:23:22;;;;;;;;;;;;;;;;;;5075016;28;1909;-45
2023/03/06 14:26:09;;;;;;;;;;;;;;;;;;5074397;28;2031;-44
2023/03/06 14:28:36;;;;;;;;;;;;;;;;;;5067439;28;2035;-45
2023/03/06 14:31:04;;;;;;;;;;;;;;;;;;5093438;28;1731;-44
2023/03/06 14:33:34;;;;;;;;;;;;;;;;;;5094729;28;1964;-44
2023/03/06 14:36:03;;;;;;;;;;;;;;;;;;5094121;28;1976;-45
2023/03/06 14:38:33;;;;;;;;;;;;;;;;;;5082016;28;1816;-43
2023/03/06 14:41:01;;;;;;;;;;;;;;;;;;5074204;28;1875;-44
2023/03/06 14:43:30;;;;;;;;;;;;;;;;;;5074148;28;1970;-42
2023/03/06 14:46:02;;;;;;;;;;;;;;;;;;5074380;28;2048;-43
2023/03/06 14:48:38;;;;;;;;;;;;;;;;;;5073915;28;1837;-40
2023/03/06 14:51:06;;;;;;;;;;;;;;;;;;5074226;28;2121;-45
2023/03/06 14:53:33;;;;;;;;;;;;;;;;;;5074025;28;2080;-46
2023/03/06 14:56:02;;;;;;;;;;;;;;;;;;5073838;28;1633;-45
2023/03/06 14:58:43;;;;;;;;;;;;;;;;;;5074141;28;2021;-43
2023/03/06 15:01:12;;;;;;;;;;;;;;;;;;5074063;28;2029;-51
2023/03/06 15:03:51;;;;;;;;;;;;;;;;;;5074219;28;1900;-47
2023/03/06 15:06:20;;;;;;;;;;;;;;;;;;5073777;28;1648;-47
2023/03/06 15:08:51;;;;;;;;;;;;;;;;;;5081142;28;2084;-43
2023/03/06 15:11:18;;;;;;;;;;;;;;;;;;5076774;28;2061;-46
2023/03/06 15:13:58;;;;;;;;;;;;;;;;;;5055804;28;2161;-44
2023/03/06 15:16:27;;;;;;;;;;;;;;;;;;5073485;28;1999;-42
2023/03/06 15:18:57;;;;;;;;;;;;;;;;;;5073755;28;1896;-44
2023/03/06 15:21:28;;;;;;;;;;;;;;;;;;5073646;28;1962;-46
2023/03/06 15:23:55;;;;;;;;;;;;;;;;;;5073761;28;2040;-43
2023/03/06 15:26:35;;;;;;;;;;;;;;;;;;5072771;28;1916;-42
2023/03/06 15:29:12;;;;;;;;;;;;;;;;;;5055656;28;2073;-43
2023/03/06 15:31:41;;;;;;;;;;;;;;;;;;5073709;28;1925;-47
2023/03/06 15:34:08;;;;;;;;;;;;;;;;;;5073407;28;1988;-45
2023/03/06 15:36:43;;;;;;;;;;;;;;;;;;5073029;28;1849;-44
2023/03/06 15:39:34;;;;;;;;;;;;;;;;;;5073455;28;1842;-46
2023/03/06 15:42:07;;;;;;;;;;;;;;;;;;5045412;28;1846;-46
2023/03/06 15:44:34;;;;;;;;;;;;;;;;;;5073358;28;2006;-45
2023/03/06 15:47:01;;;;;;;;;;;;;;;;;;5073245;28;1967;-44
2023/03/06 15:49:35;;;;;;;;;;;;;;;;;;5073057;28;2038;-47
2023/03/06 15:52:02;;;;;;;;;;;;;;;;;;5073141;28;2483;-47
2023/03/06 15:54:29;;;;;;;;;;;;;;;;;;5072915;28;1964;-44
2023/03/06 15:56:58;;;;;;;;;;;;;;;;;;5072896;28;2022;-46
2023/03/06 15:59:31;;;;;;;;;;;;;;;;;;5055400;28;1824;-42
2023/03/06 16:02:02;;;;;;;;;;;;;;;;;;5072698;28;1963;-45
2023/03/06 16:04:29;;;;;;;;;;;;;;;;;;5072703;28;1966;-43
2023/03/06 16:06:56;;;;;;;;;;;;;;;;;;5072590;28;1923;-45
2023/03/06 16:09:23;;;;;;;;;;;;;;;;;;5085196;28;2042;-45
2023/03/06 16:11:50;;;;;;;;;;;;;;;;;;5092810;28;1977;-46
2023/03/06 16:14:20;;;;;;;;;;;;;;;;;;5092821;28;2145;-48
2023/03/06 16:16:49;;;;;;;;;;;;;;;;;;5092451;28;1831;-43
2023/03/06 16:19:17;;;;;;;;;;;;;;;;;;5092811;28;2029;-43
2023/03/06 16:21:52;;;;;;;;;;;;;;;;;;5074548;28;1873;-45
2023/03/06 16:24:19;;;;;;;;;;;;;;;;;;5092737;28;1971;-49
2023/03/06 16:26:49;;;;;;;;;;;;;;;;;;5092775;28;1972;-42
2023/03/06 16:29:18;;;;;;;;;;;;;;;;;;5092734;28;2132;-43
2023/03/06 16:31:45;;;;;;;;;;;;;;;;;;5081817;28;1881;-44
2023/03/06 16:34:12;;;;;;;;;;;;;;;;;;5072139;28;1926;-43
2023/03/06 16:36:39;;;;;;;;;;;;;;;;;;5071935;28;2065;-45
2023/03/06 16:39:12;;;;;;;;;;;;;;;;;;5072051;28;2048;-42
2023/03/06 16:41:39;;;;;;;;;;;;;;;;;;5071406;28;2027;-42
2023/03/06 16:44:09;;;;;;;;;;;;;;;;;;5053758;28;1946;-43
2023/03/06 16:46:46;;;;;;;;;;;;;;;;;;5071808;28;2086;-46
2023/03/06 16:49:23;;;;;;;;;;;;;;;;;;5071794;28;2013;-43
2023/03/06 16:51:51;;;;;;;;;;;;;;;;;;5071967;28;2097;-44
2023/03/06 16:54:20;;;;;;;;;;;;;;;;;;5072033;28;1914;-43
2023/03/06 16:56:47;;;;;;;;;;;;;;;;;;5071901;28;1942;-45
2023/03/06 16:59:14;;;;;;;;;;;;;;;;;;5072065;28;1999;-46
2023/03/06 17:01:42;;;;;;;;;;;;;;;;;;5071599;28;1972;-42
2023/03/06 17:04:09;;;;;;;;;;;;;;;;;;5071874;28;1999;-45
2023/03/06 17:06:37;;;;;;;;;;;;;;;;;;5071862;28;1821;-46
2023/03/06 17:09:04;;;;;;;;;;;;;;;;;;5080930;28;1939;-45
2023/03/06 17:11:32;;;;;;;;;;;;;;;;;;5091843;28;1911;-44
2023/03/06 17:14:00;;;;;;;;;;;;;;;;;;5091806;28;1980;-44
2023/03/06 17:16:27;;;;;;;;;;;;;;;;;;5073979;28;1942;-44
2023/03/06 17:18:54;;;;;;;;;;;;;;;;;;5091699;28;2078;-45
2023/03/06 17:21:21;;;;;;;;;;;;;;;;;;5092183;28;1542;-47
2023/03/06 17:23:49;;;;;;;;;;;;;;;;;;5091804;28;2195;-42
2023/03/06 17:26:17;;;;;;;;;;;;;;;;;;5091762;28;1822;-44
2023/03/06 17:28:45;;;;;;;;;;;;;;;;;;5091341;28;2125;-45